Orlik, Russia
Current Conditions -  °F | °C
As of 2:00 PM on Saturday 25 Oct 2014 (Local Time) from UIII Reporting Station
Scattered Clouds Scattered Clouds  
Wind Chill: -3°   Ceiling: Unl
Heat Index: -3°   Visibility: 6mi
Dew Point: -11°   Wind: 2mph
Humidity: 55%   Direction: NA
Pressure: 30.42"   Gusts: NA
Location:  52.51°N, 99.83°E
Report Text: UIII 250600Z VRB01MPS 9999 FEW020 SCT100 M03/M11 Q1030 NOSIGRMK QFE727/0969 30950243
Loading
Personal Weather Stations






























Interactive Weather Map
Tropical Storm Tracking
New forecast layout! Learn more

10-Day Weather Forecast

Advertisements
Track Severe Weather on mobile